sensor_id;sensor_type;location;lat;lon;timestamp;pressure;altitude;pressure_sealevel;temperature;humidity
8697;BME280;4385;48.848;8.924;2024-01-15T00:01:49;96311.69;;;15.02;100.00
8697;BME280;4385;48.848;8.924;2024-01-15T00:04:14;96311.00;;;14.95;100.00
8697;BME280;4385;48.848;8.924;2024-01-15T00:06:40;96313.66;;;14.91;100.00
8697;BME280;4385;48.848;8.924;2024-01-15T00:09:05;96309.53;;;14.87;100.00
8697;BME280;4385;48.848;8.924;2024-01-15T00:11:31;96317.28;;;14.82;100.00
8697;BME280;4385;48.848;8.924;2024-01-15T00:13:57;96311.41;;;14.78;100.00
8697;BME280;4385;48.848;8.924;2024-01-15T00:16:22;96305.56;;;14.76;100.00
8697;BME280;4385;48.848;8.924;2024-01-15T00:18:47;96307.34;;;14.73;100.00
8697;BME280;4385;48.848;8.924;2024-01-15T00:21:13;96311.63;;;14.70;100.00
8697;BME280;4385;48.848;8.924;2024-01-15T00:23:42;96309.16;;;14.67;100.00
8697;BME280;4385;48.848;8.924;2024-01-15T00:26:07;96305.00;;;14.65;100.00
8697;BME280;4385;48.848;8.924;2024-01-15T00:28:32;96300.88;;;14.61;100.00
8697;BME280;4385;48.848;8.924;2024-01-15T00:30:58;96301.81;;;14.56;100.00
8697;BME280;4385;48.848;8.924;2024-01-15T00:33:23;96304.44;;;14.53;100.00
8697;BME280;4385;48.848;8.924;2024-01-15T00:35:48;96293.56;;;14.50;100.00
8697;BME280;4385;48.848;8.924;2024-01-15T00:38:13;96295.31;;;14.46;100.00
8697;BME280;4385;48.848;8.924;2024-01-15T00:40:39;96296.28;;;14.42;100.00
8697;BME280;4385;48.848;8.924;2024-01-15T00:43:04;96298.00;;;14.40;100.00
8697;BME280;4385;48.848;8.924;2024-01-15T00:45:29;96301.50;;;14.36;100.00
8697;BME280;4385;48.848;8.924;2024-01-15T00:47:55;96298.16;;;14.33;100.00
8697;BME280;4385;48.848;8.924;2024-01-15T00:50:21;96295.72;;;14.30;100.00
8697;BME280;4385;48.848;8.924;2024-01-15T00:52:46;96304.22;;;14.28;100.00
8697;BME280;4385;48.848;8.924;2024-01-15T00:55:12;96303.47;;;14.24;100.00
8697;BME280;4385;48.848;8.924;2024-01-15T00:57:37;96303.50;;;14.23;100.00
8697;BME280;4385;48.848;8.924;2024-01-15T01:00:03;96303.56;;;14.19;100.00
8697;BME280;4385;48.848;8.924;2024-01-15T01:02:28;96303.59;;;14.18;100.00
8697;BME280;4385;48.848;8.924;2024-01-15T01:04:53;96307.00;;;14.17;100.00
8697;BME280;4385;48.848;8.924;2024-01-15T01:07:19;96311.28;;;14.15;100.00
8697;BME280;4385;48.848;8.924;2024-01-15T01:09:44;96300.38;;;14.11;100.00
8697;BME280;4385;48.848;8.924;2024-01-15T01:12:10;96312.22;;;14.11;100.00
8697;BME280;4385;48.848;8.924;2024-01-15T01:14:36;96302.94;;;14.09;100.00
8697;BME280;4385;48.848;8.924;2024-01-15T01:17:01;96296.25;;;14.07;100.00
8697;BME280;4385;48.848;8.924;2024-01-15T01:19:26;96297.97;;;14.05;100.00
8697;BME280;4385;48.848;8.924;2024-01-15T01:21:51;96301.41;;;14.04;100.00
8697;BME280;4385;48.848;8.924;2024-01-15T01:24:17;96287.13;;;14.01;100.00
8697;BME280;4385;48.848;8.924;2024-01-15T01:26:42;96289.69;;;14.00;100.00
8697;BME280;4385;48.848;8.924;2024-01-15T01:29:07;96288.06;;;13.95;100.00
8697;BME280;4385;48.848;8.924;2024-01-15T01:31:33;96287.28;;;13.93;100.00
8697;BME280;4385;48.848;8.924;2024-01-15T01:33:58;96292.38;;;13.92;100.00
8697;BME280;4385;48.848;8.924;2024-01-15T01:36:23;96294.16;;;13.88;100.00
8697;BME280;4385;48.848;8.924;2024-01-15T01:38:49;96295.06;;;13.86;100.00
8697;BME280;4385;48.848;8.924;2024-01-15T01:41:14;96290.06;;;13.82;100.00
8697;BME280;4385;48.848;8.924;2024-01-15T01:43:40;96291.75;;;13.82;100.00
8697;BME280;4385;48.848;8.924;2024-01-15T01:46:05;96286.75;;;13.79;100.00
8697;BME280;4385;48.848;8.924;2024-01-15T01:48:31;96292.72;;;13.76;100.00
8697;BME280;4385;48.848;8.924;2024-01-15T01:50:59;96290.19;;;13.76;100.00
8697;BME280;4385;48.848;8.924;2024-01-15T01:53:26;96291.97;;;13.73;100.00
8697;BME280;4385;48.848;8.924;2024-01-15T01:55:52;96280.19;;;13.71;100.00
8697;BME280;4385;48.848;8.924;2024-01-15T01:58:19;96279.38;;;13.69;100.00
8697;BME280;4385;48.848;8.924;2024-01-15T02:00:45;96287.84;;;13.68;100.00
8697;BME280;4385;48.848;8.924;2024-01-15T02:03:11;96281.13;;;13.66;100.00
8697;BME280;4385;48.848;8.924;2024-01-15T02:05:39;96279.47;;;13.65;100.00
8697;BME280;4385;48.848;8.924;2024-01-15T02:08:04;96288.75;;;13.64;100.00
8697;BME280;4385;48.848;8.924;2024-01-15T02:10:30;96282.88;;;13.64;100.00
8697;BME280;4385;48.848;8.924;2024-01-15T02:12:55;96279.53;;;13.62;100.00
8697;BME280;4385;48.848;8.924;2024-01-15T02:15:20;96273.63;;;13.61;100.00
8697;BME280;4385;48.848;8.924;2024-01-15T02:17:59;96279.59;;;13.58;100.00
8697;BME280;4385;48.848;8.924;2024-01-15T02:20:25;96279.63;;;13.57;100.00
8697;BME280;4385;48.848;8.924;2024-01-15T02:22:51;96272.94;;;13.54;100.00
8697;BME280;4385;48.848;8.924;2024-01-15T02:25:16;96273.78;;;13.53;100.00
8697;BME280;4385;48.848;8.924;2024-01-15T02:27:42;96262.88;;;13.53;100.00
8697;BME280;4385;48.848;8.924;2024-01-15T02:30:10;96267.88;;;13.54;100.00
8697;BME280;4385;48.848;8.924;2024-01-15T02:32:36;96269.53;;;13.55;100.00
8697;BME280;4385;48.848;8.924;2024-01-15T02:35:01;96271.19;;;13.56;100.00
8697;BME280;4385;48.848;8.924;2024-01-15T02:37:26;96264.41;;;13.58;100.00
8697;BME280;4385;48.848;8.924;2024-01-15T02:39:52;96261.00;;;13.59;100.00
8697;BME280;4385;48.848;8.924;2024-01-15T02:42:17;96265.22;;;13.61;100.00
8697;BME280;4385;48.848;8.924;2024-01-15T02:44:42;96258.50;;;13.58;100.00
8697;BME280;4385;48.848;8.924;2024-01-15T02:47:07;96259.44;;;13.54;100.00
8697;BME280;4385;48.848;8.924;2024-01-15T02:49:33;96262.91;;;13.51;100.00
8697;BME280;4385;48.848;8.924;2024-01-15T02:51:58;96262.06;;;13.49;100.00
8697;BME280;4385;48.848;8.924;2024-01-15T02:54:23;96262.94;;;13.48;100.00
8697;BME280;4385;48.848;8.924;2024-01-15T02:56:48;96264.59;;;13.49;100.00
8697;BME280;4385;48.848;8.924;2024-01-15T02:59:14;96259.53;;;13.49;100.00
8697;BME280;4385;48.848;8.924;2024-01-15T03:01:39;96259.56;;;13.47;100.00
8697;BME280;4385;48.848;8.924;2024-01-15T03:04:04;96265.50;;;13.46;100.00
8697;BME280;4385;48.848;8.924;2024-01-15T03:06:29;96265.53;;;13.45;100.00
8697;BME280;4385;48.848;8.924;2024-01-15T03:08:55;96266.38;;;13.44;100.00
8697;BME280;4385;48.848;8.924;2024-01-15T03:11:20;96271.44;;;13.44;100.00
8697;BME280;4385;48.848;8.924;2024-01-15T03:13:45;96254.59;;;13.43;100.00
8697;BME280;4385;48.848;8.924;2024-01-15T03:16:10;96264.72;;;13.43;100.00
8697;BME280;4385;48.848;8.924;2024-01-15T03:18:36;96268.94;;;13.42;100.00
8697;BME280;4385;48.848;8.924;2024-01-15T03:21:01;96267.31;;;13.40;100.00
8697;BME280;4385;48.848;8.924;2024-01-15T03:23:27;96265.69;;;13.37;100.00
8697;BME280;4385;48.848;8.924;2024-01-15T03:25:52;96266.56;;;13.34;100.00
8697;BME280;4385;48.848;8.924;2024-01-15T03:28:17;96262.44;;;13.30;100.00
8697;BME280;4385;48.848;8.924;2024-01-15T03:30:42;96256.56;;;13.28;100.00
8697;BME280;4385;48.848;8.924;2024-01-15T03:33:08;96259.16;;;13.25;100.00
8697;BME280;4385;48.848;8.924;2024-01-15T03:35:33;96257.50;;;13.24;100.00
8697;BME280;4385;48.848;8.924;2024-01-15T03:37:58;96263.56;;;13.17;100.00
8697;BME280;4385;48.848;8.924;2024-01-15T03:40:23;96261.00;;;13.18;100.00
8697;BME280;4385;48.848;8.924;2024-01-15T03:42:49;96257.59;;;13.19;100.00
8697;BME280;4385;48.848;8.924;2024-01-15T03:45:14;96260.94;;;13.21;100.00
8697;BME280;4385;48.848;8.924;2024-01-15T03:47:39;96262.59;;;13.22;100.00
8697;BME280;4385;48.848;8.924;2024-01-15T03:50:05;96258.38;;;13.23;100.00
8697;BME280;4385;48.848;8.924;2024-01-15T03:52:31;96259.16;;;13.25;100.00
8697;BME280;4385;48.848;8.924;2024-01-15T03:54:56;96247.38;;;13.24;100.00
8697;BME280;4385;48.848;8.924;2024-01-15T03:57:21;96255.00;;;13.22;100.00
8697;BME280;4385;48.848;8.924;2024-01-15T03:59:47;96240.72;;;13.21;100.00
8697;BME280;4385;48.848;8.924;2024-01-15T04:02:12;96241.59;;;13.19;100.00
8697;BME280;4385;48.848;8.924;2024-01-15T04:04:41;96239.97;;;13.16;100.00
8697;BME280;4385;48.848;8.924;2024-01-15T04:07:07;96243.41;;;13.14;100.00
8697;BME280;4385;48.848;8.924;2024-01-15T04:09:32;96235.88;;;13.11;100.00
8697;BME280;4385;48.848;8.924;2024-01-15T04:11:57;96230.03;;;13.07;100.00
8697;BME280;4385;48.848;8.924;2024-01-15T04:14:22;96227.56;;;13.04;100.00
8697;BME280;4385;48.848;8.924;2024-01-15T04:16:48;96229.28;;;13.02;100.00
8697;BME280;4385;48.848;8.924;2024-01-15T04:19:13;96225.13;;;12.99;100.00
8697;BME280;4385;48.848;8.924;2024-01-15T04:21:38;96231.91;;;12.97;100.00
8697;BME280;4385;48.848;8.924;2024-01-15T04:24:04;96224.34;;;12.95;100.00
8697;BME280;4385;48.848;8.924;2024-01-15T04:26:29;96226.84;;;12.97;100.00
8697;BME280;4385;48.848;8.924;2024-01-15T04:28:54;96215.03;;;12.99;100.00
8697;BME280;4385;48.848;8.924;2024-01-15T04:31:23;96213.25;;;13.04;100.00
8697;BME280;4385;48.848;8.924;2024-01-15T04:33:49;96214.75;;;13.12;100.00
8697;BME280;4385;48.848;8.924;2024-01-15T04:36:14;96216.28;;;13.19;100.00
8697;BME280;4385;48.848;8.924;2024-01-15T04:38:39;96209.44;;;13.24;100.00
8697;BME280;4385;48.848;8.924;2024-01-15T04:41:05;96200.94;;;13.27;100.00
8697;BME280;4385;48.848;8.924;2024-01-15T04:43:30;96207.66;;;13.29;100.00
8697;BME280;4385;48.848;8.924;2024-01-15T04:45:55;96207.66;;;13.29;100.00
8697;BME280;4385;48.848;8.924;2024-01-15T04:48:20;96202.63;;;13.28;100.00
8697;BME280;4385;48.848;8.924;2024-01-15T04:50:48;96214.44;;;13.27;100.00
8697;BME280;4385;48.848;8.924;2024-01-15T04:53:13;96210.25;;;13.26;100.00
8697;BME280;4385;48.848;8.924;2024-01-15T04:55:39;96210.25;;;13.26;100.00
8697;BME280;4385;48.848;8.924;2024-01-15T04:58:04;96207.72;;;13.26;100.00
8697;BME280;4385;48.848;8.924;2024-01-15T05:00:29;96214.41;;;13.29;100.00
8697;BME280;4385;48.848;8.924;2024-01-15T05:02:54;96211.84;;;13.30;100.00
8697;BME280;4385;48.848;8.924;2024-01-15T05:05:21;96207.66;;;13.29;100.00
8697;BME280;4385;48.848;8.924;2024-01-15T05:07:46;96203.47;;;13.27;100.00
8697;BME280;4385;48.848;8.924;2024-01-15T05:10:11;96202.66;;;13.26;100.00
8697;BME280;4385;48.848;8.924;2024-01-15T05:12:37;96200.97;;;13.25;100.00
8697;BME280;4385;48.848;8.924;2024-01-15T05:15:04;96201.00;;;13.24;100.00
8697;BME280;4385;48.848;8.924;2024-01-15T05:17:29;96194.31;;;13.22;100.00
8697;BME280;4385;48.848;8.924;2024-01-15T05:19:54;96182.50;;;13.23;100.00
8697;BME280;4385;48.848;8.924;2024-01-15T05:22:19;96185.81;;;13.25;100.00
8697;BME280;4385;48.848;8.924;2024-01-15T05:24:46;96184.16;;;13.24;100.00
8697;BME280;4385;48.848;8.924;2024-01-15T05:27:11;96184.22;;;13.21;100.00
8697;BME280;4385;48.848;8.924;2024-01-15T05:29:36;96189.34;;;13.18;100.00
8697;BME280;4385;48.848;8.924;2024-01-15T05:32:02;96188.53;;;13.16;100.00
8697;BME280;4385;48.848;8.924;2024-01-15T05:34:27;96178.41;;;13.16;100.00
8697;BME280;4385;48.848;8.924;2024-01-15T05:36:52;96178.44;;;13.14;100.00
8697;BME280;4385;48.848;8.924;2024-01-15T05:39:18;96181.00;;;13.13;100.00
8697;BME280;4385;48.848;8.924;2024-01-15T05:41:43;96183.56;;;13.11;100.00
8697;BME280;4385;48.848;8.924;2024-01-15T05:44:09;96176.00;;;13.09;100.00
8697;BME280;4385;48.848;8.924;2024-01-15T05:46:35;96179.41;;;13.08;100.00
8697;BME280;4385;48.848;8.924;2024-01-15T05:49:00;96179.50;;;13.05;100.00
8697;BME280;4385;48.848;8.924;2024-01-15T05:51:25;96177.06;;;13.01;100.00
8697;BME280;4385;48.848;8.924;2024-01-15T05:53:51;96177.97;;;12.98;100.00
8697;BME280;4385;48.848;8.924;2024-01-15T05:56:16;96181.34;;;12.97;100.00
8697;BME280;4385;48.848;8.924;2024-01-15T05:58:41;96183.09;;;12.95;100.00
8697;BME280;4385;48.848;8.924;2024-01-15T06:01:06;96178.88;;;12.94;100.00
8697;BME280;4385;48.848;8.924;2024-01-15T06:03:32;96167.94;;;12.93;100.00
8697;BME280;4385;48.848;8.924;2024-01-15T06:05:57;96159.50;;;12.93;100.00
8697;BME280;4385;48.848;8.924;2024-01-15T06:08:22;96157.88;;;12.92;100.00
8697;BME280;4385;48.848;8.924;2024-01-15T06:10:47;96161.22;;;12.91;100.00
8697;BME280;4385;48.848;8.924;2024-01-15T06:13:13;96159.59;;;12.90;100.00
8697;BME280;4385;48.848;8.924;2024-01-15T06:15:38;96151.16;;;12.89;100.00
8697;BME280;4385;48.848;8.924;2024-01-15T06:18:04;96153.66;;;12.91;100.00
8697;BME280;4385;48.848;8.924;2024-01-15T06:20:29;96143.53;;;12.91;100.00
8697;BME280;4385;48.848;8.924;2024-01-15T06:22:55;96151.09;;;12.92;100.00
8697;BME280;4385;48.848;8.924;2024-01-15T06:25:20;96149.34;;;12.96;100.00
8697;BME280;4385;48.848;8.924;2024-01-15T06:27:45;96149.22;;;13.02;100.00
8697;BME280;4385;48.848;8.924;2024-01-15T06:30:11;96143.34;;;13.00;100.00
8697;BME280;4385;48.848;8.924;2024-01-15T06:32:37;96147.63;;;12.98;100.00
8697;BME280;4385;48.848;8.924;2024-01-15T06:35:02;96151.06;;;12.94;100.00
8697;BME280;4385;48.848;8.924;2024-01-15T06:37:27;96154.47;;;12.93;100.00
8697;BME280;4385;48.848;8.924;2024-01-15T06:39:53;96152.81;;;12.92;100.00
8697;BME280;4385;48.848;8.924;2024-01-15T06:42:18;96158.63;;;12.94;100.00
8697;BME280;4385;48.848;8.924;2024-01-15T06:44:43;96158.56;;;12.97;100.00
8697;BME280;4385;48.848;8.924;2024-01-15T06:47:09;96162.78;;;12.98;100.00
8697;BME280;4385;48.848;8.924;2024-01-15T06:49:34;96152.69;;;12.98;100.00
8697;BME280;4385;48.848;8.924;2024-01-15T06:51:59;96151.06;;;12.94;100.00
8697;BME280;4385;48.848;8.924;2024-01-15T06:54:25;96151.06;;;12.94;100.00
8697;BME280;4385;48.848;8.924;2024-01-15T06:56:51;96147.78;;;12.90;100.00
8697;BME280;4385;48.848;8.924;2024-01-15T06:59:16;96157.13;;;12.87;100.00
8697;BME280;4385;48.848;8.924;2024-01-15T07:01:42;96155.47;;;12.86;100.00
8697;BME280;4385;48.848;8.924;2024-01-15T07:04:07;96156.31;;;12.84;100.00
8697;BME280;4385;48.848;8.924;2024-01-15T07:06:33;96163.03;;;12.86;100.00
8697;BME280;4385;48.848;8.924;2024-01-15T07:08:58;96159.63;;;12.88;100.00
8697;BME280;4385;48.848;8.924;2024-01-15T07:11:23;96162.09;;;12.90;100.00
8697;BME280;4385;48.848;8.924;2024-01-15T07:13:49;96158.63;;;12.94;100.00
8697;BME280;4385;48.848;8.924;2024-01-15T07:16:14;96157.59;;;13.04;100.00
8697;BME280;4385;48.848;8.924;2024-01-15T07:18:40;96158.31;;;13.09;100.00
8697;BME280;4385;48.848;8.924;2024-01-15T07:21:06;96151.50;;;13.13;100.00
8697;BME280;4385;48.848;8.924;2024-01-15T07:23:31;96164.03;;;13.18;100.00
8697;BME280;4385;48.848;8.924;2024-01-15T07:25:57;96161.47;;;13.19;100.00
8697;BME280;4385;48.848;8.924;2024-01-15T07:28:22;96163.16;;;13.19;100.00
8697;BME280;4385;48.848;8.924;2024-01-15T07:30:48;96159.00;;;13.18;100.00
8697;BME280;4385;48.848;8.924;2024-01-15T07:33:13;96155.59;;;13.19;100.00
8697;BME280;4385;48.848;8.924;2024-01-15T07:35:38;96157.25;;;13.20;100.00
8697;BME280;4385;48.848;8.924;2024-01-15T07:38:04;96165.69;;;13.19;100.00
8697;BME280;4385;48.848;8.924;2024-01-15T07:40:29;96164.03;;;13.18;100.00
8697;BME280;4385;48.848;8.924;2024-01-15T07:42:54;96172.56;;;13.14;100.00
8697;BME280;4385;48.848;8.924;2024-01-15T07:45:19;96161.66;;;13.12;100.00
8697;BME280;4385;48.848;8.924;2024-01-15T07:47:45;96155.78;;;13.09;100.00
8697;BME280;4385;48.848;8.924;2024-01-15T07:50:10;96156.72;;;13.05;100.00
8697;BME280;4385;48.848;8.924;2024-01-15T07:52:35;96157.69;;;13.00;100.00
8697;BME280;4385;48.848;8.924;2024-01-15T07:55:01;96154.34;;;12.97;100.00
8697;BME280;4385;48.848;8.924;2024-01-15T07:57:28;96152.78;;;12.93;100.00
8697;BME280;4385;48.848;8.924;2024-01-15T07:59:54;96154.53;;;12.90;100.00
8697;BME280;4385;48.848;8.924;2024-01-15T08:02:19;96154.53;;;12.90;100.00
8697;BME280;4385;48.848;8.924;2024-01-15T08:04:44;96159.44;;;12.96;100.00
8697;BME280;4385;48.848;8.924;2024-01-15T08:07:11;96167.78;;;13.01;100.00
8697;BME280;4385;48.848;8.924;2024-01-15T08:09:36;96176.09;;;13.06;100.00
8697;BME280;4385;48.848;8.924;2024-01-15T08:12:01;96171.81;;;13.10;100.00
8697;BME280;4385;48.848;8.924;2024-01-15T08:14:27;96170.81;;;13.16;100.00
8697;BME280;4385;48.848;8.924;2024-01-15T08:16:52;96165.78;;;13.16;100.00
8697;BME280;4385;48.848;8.924;2024-01-15T08:19:17;96172.56;;;13.14;100.00
8697;BME280;4385;48.848;8.924;2024-01-15T08:21:43;96175.09;;;13.14;100.00
8697;BME280;4385;48.848;8.924;2024-01-15T08:24:08;96159.97;;;13.12;100.00
8697;BME280;4385;48.848;8.924;2024-01-15T08:26:33;96165.13;;;13.07;100.00
8697;BME280;4385;48.848;8.924;2024-01-15T08:28:59;96171.94;;;13.04;100.00
8697;BME280;4385;48.848;8.924;2024-01-15T08:31:24;96164.38;;;13.02;100.00
8697;BME280;4385;48.848;8.924;2024-01-15T08:33:50;96163.59;;;12.99;100.00
8697;BME280;4385;48.848;8.924;2024-01-15T08:36:15;96161.06;;;12.99;100.00
8697;BME280;4385;48.848;8.924;2024-01-15T08:38:40;96158.56;;;12.97;100.00
8697;BME280;4385;48.848;8.924;2024-01-15T08:41:05;96167.00;;;12.97;100.00
8697;BME280;4385;48.848;8.924;2024-01-15T08:43:33;96155.19;;;12.98;100.00
8697;BME280;4385;48.848;8.924;2024-01-15T08:45:58;96153.53;;;12.97;100.00
8697;BME280;4385;48.848;8.924;2024-01-15T08:48:24;96153.53;;;12.97;100.00
8697;BME280;4385;48.848;8.924;2024-01-15T08:50:52;96157.78;;;12.95;100.00
8697;BME280;4385;48.848;8.924;2024-01-15T08:53:18;96162.91;;;12.92;100.00
8697;BME280;4385;48.848;8.924;2024-01-15T08:55:43;96156.13;;;12.94;100.00
8697;BME280;4385;48.848;8.924;2024-01-15T08:58:09;96157.72;;;12.98;100.00
8697;BME280;4385;48.848;8.924;2024-01-15T09:00:34;96147.56;;;13.01;100.00
8697;BME280;4385;48.848;8.924;2024-01-15T09:03:00;96160.91;;;13.06;100.00
8697;BME280;4385;48.848;8.924;2024-01-15T09:05:25;96152.41;;;13.11;100.00
8697;BME280;4385;48.848;8.924;2024-01-15T09:07:51;96148.94;;;13.15;100.00
8697;BME280;4385;48.848;8.924;2024-01-15T09:10:17;96139.69;;;13.14;100.00
8697;BME280;4385;48.848;8.924;2024-01-15T09:12:42;96132.19;;;13.11;100.00
8697;BME280;4385;48.848;8.924;2024-01-15T09:15:08;96134.78;;;13.07;100.00
8697;BME280;4385;48.848;8.924;2024-01-15T09:17:33;96125.53;;;13.05;100.00
8697;BME280;4385;48.848;8.924;2024-01-15T09:19:59;96130.63;;;13.03;100.00
8697;BME280;4385;48.848;8.924;2024-01-15T09:22:24;96121.38;;;13.02;100.00
8697;BME280;4385;48.848;8.924;2024-01-15T09:24:49;96118.06;;;13.00;100.00
8697;BME280;4385;48.848;8.924;2024-01-15T09:27:15;96127.31;;;13.01;100.00
8697;BME280;4385;48.848;8.924;2024-01-15T09:29:41;96145.03;;;13.01;100.00
8697;BME280;4385;48.848;8.924;2024-01-15T09:32:07;96141.66;;;13.01;100.00
8697;BME280;4385;48.848;8.924;2024-01-15T09:34:33;96145.09;;;12.98;100.00
8697;BME280;4385;48.848;8.924;2024-01-15T09:36:59;96138.34;;;12.97;100.00
8697;BME280;4385;48.848;8.924;2024-01-15T09:39:25;96142.63;;;12.95;100.00
8697;BME280;4385;48.848;8.924;2024-01-15T09:41:51;96143.41;;;12.97;100.00
8697;BME280;4385;48.848;8.924;2024-01-15T09:44:17;96137.50;;;12.98;100.00
8697;BME280;4385;48.848;8.924;2024-01-15T09:46:42;96135.84;;;12.95;100.00
8697;BME280;4385;48.848;8.924;2024-01-15T09:49:10;96139.34;;;12.90;100.00
8697;BME280;4385;48.848;8.924;2024-01-15T09:51:35;96133.47;;;12.89;100.00
8697;BME280;4385;48.848;8.924;2024-01-15T09:54:01;96132.53;;;12.93;100.00
8697;BME280;4385;48.848;8.924;2024-01-15T09:56:27;96130.69;;;13.00;100.00
8697;BME280;4385;48.848;8.924;2024-01-15T09:58:52;96128.97;;;13.02;100.00
8697;BME280;4385;48.848;8.924;2024-01-15T10:01:20;96125.56;;;13.03;100.00
8697;BME280;4385;48.848;8.924;2024-01-15T10:03:46;96127.25;;;13.04;100.00
8697;BME280;4385;48.848;8.924;2024-01-15T10:06:15;96128.06;;;13.05;100.00
8697;BME280;4385;48.848;8.924;2024-01-15T10:08:43;96126.38;;;13.05;100.00
8697;BME280;4385;48.848;8.924;2024-01-15T10:11:12;96124.69;;;13.06;100.00
8697;BME280;4385;48.848;8.924;2024-01-15T10:13:38;96119.63;;;13.06;100.00
8697;BME280;4385;48.848;8.924;2024-01-15T10:16:04;96127.22;;;13.06;100.00
8697;BME280;4385;48.848;8.924;2024-01-15T10:18:29;96117.13;;;13.04;100.00
8697;BME280;4385;48.848;8.924;2024-01-15T10:20:55;96107.06;;;13.03;100.00
8697;BME280;4385;48.848;8.924;2024-01-15T10:23:23;96115.53;;;13.00;100.00
8697;BME280;4385;48.848;8.924;2024-01-15T10:25:48;96108.81;;;12.99;100.00
8697;BME280;4385;48.848;8.924;2024-01-15T10:28:13;96091.16;;;12.97;100.00
8697;BME280;4385;48.848;8.924;2024-01-15T10:30:39;96103.81;;;12.96;100.00
8697;BME280;4385;48.848;8.924;2024-01-15T10:33:04;96102.16;;;12.95;100.00
8697;BME280;4385;48.848;8.924;2024-01-15T10:35:32;96101.31;;;12.94;100.00
8697;BME280;4385;48.848;8.924;2024-01-15T10:37:58;96080.25;;;12.94;100.00
8697;BME280;4385;48.848;8.924;2024-01-15T10:40:24;96084.50;;;12.93;100.00
8697;BME280;4385;48.848;8.924;2024-01-15T10:42:50;96080.19;;;12.97;100.00
8697;BME280;4385;48.848;8.924;2024-01-15T10:45:16;96085.22;;;12.99;100.00
8697;BME280;4385;48.848;8.924;2024-01-15T10:47:42;96075.94;;;12.99;100.00
8697;BME280;4385;48.848;8.924;2024-01-15T10:50:09;96078.47;;;12.99;100.00
8697;BME280;4385;48.848;8.924;2024-01-15T10:52:39;96080.06;;;13.03;100.00
8697;BME280;4385;48.848;8.924;2024-01-15T10:55:09;96080.00;;;13.05;100.00
8697;BME280;4385;48.848;8.924;2024-01-15T10:57:35;96079.13;;;13.07;100.00
8697;BME280;4385;48.848;8.924;2024-01-15T11:00:02;96079.13;;;13.07;100.00
8697;BME280;4385;48.848;8.924;2024-01-15T11:02:35;96074.16;;;13.04;100.00
8697;BME280;4385;48.848;8.924;2024-01-15T11:05:01;96075.00;;;13.03;100.00
8697;BME280;4385;48.848;8.924;2024-01-15T11:07:27;96073.34;;;13.02;100.00
8697;BME280;4385;48.848;8.924;2024-01-15T11:09:52;96070.81;;;13.02;100.00
8697;BME280;4385;48.848;8.924;2024-01-15T11:12:18;96066.63;;;13.01;100.00
8697;BME280;4385;48.848;8.924;2024-01-15T11:14:49;96060.72;;;13.01;100.00
8697;BME280;4385;48.848;8.924;2024-01-15T11:17:16;96060.72;;;13.01;100.00
8697;BME280;4385;48.848;8.924;2024-01-15T11:22:08;96054.00;;;13.01;100.00
8697;BME280;4385;48.848;8.924;2024-01-15T11:24:40;96054.84;;;13.00;100.00
8697;BME280;4385;48.848;8.924;2024-01-15T11:27:09;96052.34;;;12.99;100.00
8697;BME280;4385;48.848;8.924;2024-01-15T11:29:36;96055.75;;;12.97;100.00
8697;BME280;4385;48.848;8.924;2024-01-15T11:32:08;96049.84;;;12.97;100.00
8697;BME280;4385;48.848;8.924;2024-01-15T11:34:53;96046.47;;;12.98;100.00
8697;BME280;4385;48.848;8.924;2024-01-15T11:37:20;96056.59;;;12.98;100.00
8697;BME280;4385;48.848;8.924;2024-01-15T11:39:46;96044.78;;;12.97;100.00
8697;BME280;4385;48.848;8.924;2024-01-15T11:42:12;96054.84;;;13.00;100.00
8697;BME280;4385;48.848;8.924;2024-01-15T11:44:38;96054.75;;;13.03;100.00
8697;BME280;4385;48.848;8.924;2024-01-15T11:47:08;96058.09;;;13.05;100.00
8697;BME280;4385;48.848;8.924;2024-01-15T11:49:58;96058.91;;;13.07;100.00
8697;BME280;4385;48.848;8.924;2024-01-15T11:52:25;96064.81;;;13.06;100.00
8697;BME280;4385;48.848;8.924;2024-01-15T11:57:41;96058.97;;;13.04;100.00
8697;BME280;4385;48.848;8.924;2024-01-15T12:00:09;96056.38;;;13.07;100.00
8697;BME280;4385;48.848;8.924;2024-01-15T12:02:35;96062.16;;;13.11;100.00
8697;BME280;4385;48.848;8.924;2024-01-15T12:05:01;96068.06;;;13.12;100.00
8697;BME280;4385;48.848;8.924;2024-01-15T12:07:26;96055.38;;;13.13;100.00
8697;BME280;4385;48.848;8.924;2024-01-15T12:09:51;96068.00;;;13.15;100.00
8697;BME280;4385;48.848;8.924;2024-01-15T12:12:26;96060.41;;;13.15;100.00
8697;BME280;4385;48.848;8.924;2024-01-15T12:14:53;96058.72;;;13.15;100.00
8697;BME280;4385;48.848;8.924;2024-01-15T12:17:18;96059.53;;;13.16;100.00
8697;BME280;4385;48.848;8.924;2024-01-15T12:19:44;96066.34;;;13.14;100.00
8697;BME280;4385;48.848;8.924;2024-01-15T12:22:09;96072.28;;;13.11;100.00
8697;BME280;4385;48.848;8.924;2024-01-15T12:24:35;96072.34;;;13.08;100.00
8697;BME280;4385;48.848;8.924;2024-01-15T12:27:01;96068.22;;;13.05;100.00
8697;BME280;4385;48.848;8.924;2024-01-15T12:29:27;96064.88;;;13.03;100.00
8697;BME280;4385;48.848;8.924;2024-01-15T12:31:53;96067.44;;;13.02;100.00
8697;BME280;4385;48.848;8.924;2024-01-15T12:34:18;96067.38;;;13.05;100.00
8697;BME280;4385;48.848;8.924;2024-01-15T12:36:46;96065.63;;;13.08;100.00
8697;BME280;4385;48.848;8.924;2024-01-15T12:39:11;96074.00;;;13.11;100.00
8697;BME280;4385;48.848;8.924;2024-01-15T12:41:38;96073.94;;;13.14;100.00
8697;BME280;4385;48.848;8.924;2024-01-15T12:44:04;96068.00;;;13.15;100.00
8697;BME280;4385;48.848;8.924;2024-01-15T12:46:30;96068.91;;;13.12;100.00
8697;BME280;4385;48.848;8.924;2024-01-15T12:48:56;96069.78;;;13.09;100.00
8697;BME280;4385;48.848;8.924;2024-01-15T12:51:24;96077.50;;;13.05;100.00
8697;BME280;4385;48.848;8.924;2024-01-15T12:53:50;96075.94;;;12.99;100.00
8697;BME280;4385;48.848;8.924;2024-01-15T12:56:15;96072.63;;;12.95;100.00
8697;BME280;4385;48.848;8.924;2024-01-15T12:58:41;96074.38;;;12.93;100.00
8697;BME280;4385;48.848;8.924;2024-01-15T13:01:06;96074.38;;;12.93;100.00
8697;BME280;4385;48.848;8.924;2024-01-15T13:03:31;96061.75;;;12.93;100.00
8697;BME280;4385;48.848;8.924;2024-01-15T13:05:57;96078.56;;;12.94;100.00
8697;BME280;4385;48.848;8.924;2024-01-15T13:08:22;96092.06;;;12.95;100.00